sensor_id;sensor_type;location;lat;lon;timestamp;temperature;humidity
19622;DHT22;9958;33.196;-97.114;2023-05-17T00:01:44;25.30;99.90
19622;DHT22;9958;33.196;-97.114;2023-05-17T00:04:12;25.20;99.90
19622;DHT22;9958;33.196;-97.114;2023-05-17T00:06:41;25.00;99.90
19622;DHT22;9958;33.196;-97.114;2023-05-17T00:09:10;25.00;99.90
19622;DHT22;9958;33.196;-97.114;2023-05-17T00:11:40;24.90;99.90
19622;DHT22;9958;33.196;-97.114;2023-05-17T00:14:08;24.80;99.90
19622;DHT22;9958;33.196;-97.114;2023-05-17T00:16:37;24.70;99.90
19622;DHT22;9958;33.196;-97.114;2023-05-17T00:19:05;24.60;99.90
19622;DHT22;9958;33.196;-97.114;2023-05-17T00:21:34;24.60;99.90
19622;DHT22;9958;33.196;-97.114;2023-05-17T00:24:03;24.50;99.90
19622;DHT22;9958;33.196;-97.114;2023-05-17T00:26:32;24.30;99.90
19622;DHT22;9958;33.196;-97.114;2023-05-17T00:29:02;24.30;99.90
19622;DHT22;9958;33.196;-97.114;2023-05-17T00:31:30;24.20;99.90
19622;DHT22;9958;33.196;-97.114;2023-05-17T00:33:58;24.10;99.90
19622;DHT22;9958;33.196;-97.114;2023-05-17T00:36:27;23.90;99.90
19622;DHT22;9958;33.196;-97.114;2023-05-17T00:38:55;24.00;99.90
19622;DHT22;9958;33.196;-97.114;2023-05-17T00:41:23;23.90;99.90
19622;DHT22;9958;33.196;-97.114;2023-05-17T00:43:52;23.90;99.90
19622;DHT22;9958;33.196;-97.114;2023-05-17T00:46:22;23.80;99.90
19622;DHT22;9958;33.196;-97.114;2023-05-17T00:48:50;23.70;99.90
19622;DHT22;9958;33.196;-97.114;2023-05-17T00:51:19;23.70;99.90
19622;DHT22;9958;33.196;-97.114;2023-05-17T00:53:48;23.60;99.90
19622;DHT22;9958;33.196;-97.114;2023-05-17T00:56:17;23.60;99.90
19622;DHT22;9958;33.196;-97.114;2023-05-17T00:58:45;23.50;99.90
19622;DHT22;9958;33.196;-97.114;2023-05-17T01:01:13;23.40;99.90
19622;DHT22;9958;33.196;-97.114;2023-05-17T01:03:44;23.40;99.90
19622;DHT22;9958;33.196;-97.114;2023-05-17T01:06:12;23.40;99.90
19622;DHT22;9958;33.196;-97.114;2023-05-17T01:08:41;23.30;99.90
19622;DHT22;9958;33.196;-97.114;2023-05-17T01:11:23;23.30;99.90
19622;DHT22;9958;33.196;-97.114;2023-05-17T01:14:11;23.20;99.90
19622;DHT22;9958;33.196;-97.114;2023-05-17T01:16:45;23.10;99.90
19622;DHT22;9958;33.196;-97.114;2023-05-17T01:19:52;23.10;99.90
19622;DHT22;9958;33.196;-97.114;2023-05-17T01:22:38;23.00;99.90
19622;DHT22;9958;33.196;-97.114;2023-05-17T01:25:28;22.90;99.90
19622;DHT22;9958;33.196;-97.114;2023-05-17T01:28:03;22.80;99.90
19622;DHT22;9958;33.196;-97.114;2023-05-17T01:30:32;22.70;99.90
19622;DHT22;9958;33.196;-97.114;2023-05-17T01:33:02;22.70;99.90
19622;DHT22;9958;33.196;-97.114;2023-05-17T01:35:31;22.60;99.90
19622;DHT22;9958;33.196;-97.114;2023-05-17T01:37:59;22.50;99.90
19622;DHT22;9958;33.196;-97.114;2023-05-17T01:40:28;22.50;99.90
19622;DHT22;9958;33.196;-97.114;2023-05-17T01:43:04;22.40;99.90
19622;DHT22;9958;33.196;-97.114;2023-05-17T01:45:40;22.40;99.90
19622;DHT22;9958;33.196;-97.114;2023-05-17T01:48:17;22.30;99.90
19622;DHT22;9958;33.196;-97.114;2023-05-17T01:50:48;22.30;99.90
19622;DHT22;9958;33.196;-97.114;2023-05-17T01:53:22;22.20;99.90
19622;DHT22;9958;33.196;-97.114;2023-05-17T01:55:55;22.20;99.90
19622;DHT22;9958;33.196;-97.114;2023-05-17T01:58:30;22.10;99.90
19622;DHT22;9958;33.196;-97.114;2023-05-17T02:01:02;22.10;99.90
19622;DHT22;9958;33.196;-97.114;2023-05-17T02:03:31;22.00;99.90
19622;DHT22;9958;33.196;-97.114;2023-05-17T02:05:59;22.00;99.90
19622;DHT22;9958;33.196;-97.114;2023-05-17T02:08:28;21.90;99.90
19622;DHT22;9958;33.196;-97.114;2023-05-17T02:10:56;21.90;99.90
19622;DHT22;9958;33.196;-97.114;2023-05-17T02:13:24;21.80;99.90
19622;DHT22;9958;33.196;-97.114;2023-05-17T02:15:54;21.80;99.90
19622;DHT22;9958;33.196;-97.114;2023-05-17T02:18:26;21.80;99.90
19622;DHT22;9958;33.196;-97.114;2023-05-17T02:20:55;21.70;99.90
19622;DHT22;9958;33.196;-97.114;2023-05-17T02:23:23;21.70;99.90
19622;DHT22;9958;33.196;-97.114;2023-05-17T02:25:51;21.60;99.90
19622;DHT22;9958;33.196;-97.114;2023-05-17T02:28:20;21.60;99.90
19622;DHT22;9958;33.196;-97.114;2023-05-17T02:30:48;21.60;99.90
19622;DHT22;9958;33.196;-97.114;2023-05-17T02:33:19;21.50;99.90
19622;DHT22;9958;33.196;-97.114;2023-05-17T02:35:48;21.50;99.90
19622;DHT22;9958;33.196;-97.114;2023-05-17T02:38:17;21.40;99.90
19622;DHT22;9958;33.196;-97.114;2023-05-17T02:40:45;21.40;99.90
19622;DHT22;9958;33.196;-97.114;2023-05-17T02:43:13;21.40;99.90
19622;DHT22;9958;33.196;-97.114;2023-05-17T02:45:43;21.30;99.90
19622;DHT22;9958;33.196;-97.114;2023-05-17T02:48:11;21.30;99.90
19622;DHT22;9958;33.196;-97.114;2023-05-17T02:50:41;21.30;99.90
19622;DHT22;9958;33.196;-97.114;2023-05-17T02:53:09;21.20;99.90
19622;DHT22;9958;33.196;-97.114;2023-05-17T02:55:38;21.20;99.90
19622;DHT22;9958;33.196;-97.114;2023-05-17T02:58:08;21.10;99.90
19622;DHT22;9958;33.196;-97.114;2023-05-17T03:00:36;21.10;99.90
19622;DHT22;9958;33.196;-97.114;2023-05-17T03:03:05;21.10;99.90
19622;DHT22;9958;33.196;-97.114;2023-05-17T03:05:33;21.00;99.90
19622;DHT22;9958;33.196;-97.114;2023-05-17T03:08:03;21.00;99.90
19622;DHT22;9958;33.196;-97.114;2023-05-17T03:10:31;20.90;99.90
19622;DHT22;9958;33.196;-97.114;2023-05-17T03:12:59;20.90;99.90
19622;DHT22;9958;33.196;-97.114;2023-05-17T03:15:28;20.90;99.90
19622;DHT22;9958;33.196;-97.114;2023-05-17T03:17:56;20.80;99.90
19622;DHT22;9958;33.196;-97.114;2023-05-17T03:20:24;20.80;99.90
19622;DHT22;9958;33.196;-97.114;2023-05-17T03:22:53;20.80;99.90
19622;DHT22;9958;33.196;-97.114;2023-05-17T03:25:23;20.70;99.90
19622;DHT22;9958;33.196;-97.114;2023-05-17T03:27:51;20.70;99.90
19622;DHT22;9958;33.196;-97.114;2023-05-17T03:30:19;20.60;99.90
19622;DHT22;9958;33.196;-97.114;2023-05-17T03:32:47;20.60;99.90
19622;DHT22;9958;33.196;-97.114;2023-05-17T03:35:16;20.60;99.90
19622;DHT22;9958;33.196;-97.114;2023-05-17T03:37:44;20.50;99.90
19622;DHT22;9958;33.196;-97.114;2023-05-17T03:40:12;20.50;99.90
19622;DHT22;9958;33.196;-97.114;2023-05-17T03:42:42;20.40;99.90
19622;DHT22;9958;33.196;-97.114;2023-05-17T03:45:11;20.40;99.90
19622;DHT22;9958;33.196;-97.114;2023-05-17T03:47:39;20.30;99.90
19622;DHT22;9958;33.196;-97.114;2023-05-17T03:50:08;20.30;99.90
19622;DHT22;9958;33.196;-97.114;2023-05-17T03:52:37;20.30;99.90
19622;DHT22;9958;33.196;-97.114;2023-05-17T03:55:07;20.20;99.90
19622;DHT22;9958;33.196;-97.114;2023-05-17T03:57:36;20.10;99.90
19622;DHT22;9958;33.196;-97.114;2023-05-17T04:00:07;20.10;99.90
19622;DHT22;9958;33.196;-97.114;2023-05-17T04:02:37;20.00;99.90
19622;DHT22;9958;33.196;-97.114;2023-05-17T04:05:05;20.00;99.90
19622;DHT22;9958;33.196;-97.114;2023-05-17T04:07:34;20.00;99.90
19622;DHT22;9958;33.196;-97.114;2023-05-17T04:10:02;19.90;99.90
19622;DHT22;9958;33.196;-97.114;2023-05-17T04:12:31;19.90;99.90
19622;DHT22;9958;33.196;-97.114;2023-05-17T04:15:00;19.80;99.90
19622;DHT22;9958;33.196;-97.114;2023-05-17T04:17:30;19.80;99.90
19622;DHT22;9958;33.196;-97.114;2023-05-17T04:19:59;19.70;99.90
19622;DHT22;9958;33.196;-97.114;2023-05-17T04:22:27;19.70;99.90
19622;DHT22;9958;33.196;-97.114;2023-05-17T04:24:55;19.60;99.90
19622;DHT22;9958;33.196;-97.114;2023-05-17T04:27:24;19.60;99.90
19622;DHT22;9958;33.196;-97.114;2023-05-17T04:29:52;19.60;99.90
19622;DHT22;9958;33.196;-97.114;2023-05-17T04:32:20;19.50;99.90
19622;DHT22;9958;33.196;-97.114;2023-05-17T04:34:51;19.50;99.90
19622;DHT22;9958;33.196;-97.114;2023-05-17T04:37:19;19.40;99.90
19622;DHT22;9958;33.196;-97.114;2023-05-17T04:39:47;19.40;99.90
19622;DHT22;9958;33.196;-97.114;2023-05-17T04:42:16;19.40;99.90
19622;DHT22;9958;33.196;-97.114;2023-05-17T04:44:45;19.40;99.90
19622;DHT22;9958;33.196;-97.114;2023-05-17T04:47:13;19.30;99.90
19622;DHT22;9958;33.196;-97.114;2023-05-17T04:49:41;19.20;99.90
19622;DHT22;9958;33.196;-97.114;2023-05-17T04:52:11;19.20;99.90
19622;DHT22;9958;33.196;-97.114;2023-05-17T04:54:39;19.20;99.90
19622;DHT22;9958;33.196;-97.114;2023-05-17T04:57:08;19.20;99.90
19622;DHT22;9958;33.196;-97.114;2023-05-17T04:59:36;19.10;99.90
19622;DHT22;9958;33.196;-97.114;2023-05-17T05:02:05;19.10;99.90
19622;DHT22;9958;33.196;-97.114;2023-05-17T05:04:33;19.10;99.90
19622;DHT22;9958;33.196;-97.114;2023-05-17T05:07:01;19.00;99.90
19622;DHT22;9958;33.196;-97.114;2023-05-17T05:09:32;19.00;99.90
19622;DHT22;9958;33.196;-97.114;2023-05-17T05:12:00;19.00;99.90
19622;DHT22;9958;33.196;-97.114;2023-05-17T05:14:29;18.90;99.90
19622;DHT22;9958;33.196;-97.114;2023-05-17T05:16:57;18.90;99.90
19622;DHT22;9958;33.196;-97.114;2023-05-17T05:19:25;18.90;99.90
19622;DHT22;9958;33.196;-97.114;2023-05-17T05:21:54;18.90;99.90
19622;DHT22;9958;33.196;-97.114;2023-05-17T05:24:22;18.80;99.90
19622;DHT22;9958;33.196;-97.114;2023-05-17T05:26:52;18.80;99.90
19622;DHT22;9958;33.196;-97.114;2023-05-17T05:29:20;18.80;99.90
19622;DHT22;9958;33.196;-97.114;2023-05-17T05:31:49;18.70;99.90
19622;DHT22;9958;33.196;-97.114;2023-05-17T05:34:17;18.70;99.90
19622;DHT22;9958;33.196;-97.114;2023-05-17T05:36:45;18.70;99.90
19622;DHT22;9958;33.196;-97.114;2023-05-17T05:39:13;18.60;99.90
19622;DHT22;9958;33.196;-97.114;2023-05-17T05:41:43;18.60;99.90
19622;DHT22;9958;33.196;-97.114;2023-05-17T05:44:12;18.60;99.90
19622;DHT22;9958;33.196;-97.114;2023-05-17T05:46:41;18.60;99.90
19622;DHT22;9958;33.196;-97.114;2023-05-17T05:49:09;18.50;99.90
19622;DHT22;9958;33.196;-97.114;2023-05-17T05:51:37;18.50;99.90
19622;DHT22;9958;33.196;-97.114;2023-05-17T05:54:06;18.40;99.90
19622;DHT22;9958;33.196;-97.114;2023-05-17T05:56:34;18.40;99.90
19622;DHT22;9958;33.196;-97.114;2023-05-17T05:59:02;18.40;99.90
19622;DHT22;9958;33.196;-97.114;2023-05-17T06:01:32;18.40;99.90
19622;DHT22;9958;33.196;-97.114;2023-05-17T06:04:01;18.30;99.90
19622;DHT22;9958;33.196;-97.114;2023-05-17T06:06:29;18.30;99.90
19622;DHT22;9958;33.196;-97.114;2023-05-17T06:08:57;18.30;99.90
19622;DHT22;9958;33.196;-97.114;2023-05-17T06:11:26;18.20;99.90
19622;DHT22;9958;33.196;-97.114;2023-05-17T06:13:54;18.20;99.90
19622;DHT22;9958;33.196;-97.114;2023-05-17T06:16:22;18.20;99.90
19622;DHT22;9958;33.196;-97.114;2023-05-17T06:18:52;18.20;99.90
19622;DHT22;9958;33.196;-97.114;2023-05-17T06:21:21;18.10;99.90
19622;DHT22;9958;33.196;-97.114;2023-05-17T06:23:51;18.00;99.90
19622;DHT22;9958;33.196;-97.114;2023-05-17T06:26:19;18.00;99.90
19622;DHT22;9958;33.196;-97.114;2023-05-17T06:28:47;18.00;99.90
19622;DHT22;9958;33.196;-97.114;2023-05-17T06:31:16;18.00;99.90
19622;DHT22;9958;33.196;-97.114;2023-05-17T06:33:44;18.00;99.90
19622;DHT22;9958;33.196;-97.114;2023-05-17T06:36:14;17.90;99.90
19622;DHT22;9958;33.196;-97.114;2023-05-17T06:38:42;17.90;99.90
19622;DHT22;9958;33.196;-97.114;2023-05-17T06:41:11;17.90;99.90
19622;DHT22;9958;33.196;-97.114;2023-05-17T06:43:39;17.90;99.90
19622;DHT22;9958;33.196;-97.114;2023-05-17T06:46:07;17.90;99.90
19622;DHT22;9958;33.196;-97.114;2023-05-17T06:48:35;17.80;99.90
19622;DHT22;9958;33.196;-97.114;2023-05-17T06:51:04;17.80;99.90
19622;DHT22;9958;33.196;-97.114;2023-05-17T06:53:34;17.80;99.90
19622;DHT22;9958;33.196;-97.114;2023-05-17T06:56:02;17.80;99.90
19622;DHT22;9958;33.196;-97.114;2023-05-17T06:58:30;17.80;99.90
19622;DHT22;9958;33.196;-97.114;2023-05-17T07:01:00;17.70;99.90
19622;DHT22;9958;33.196;-97.114;2023-05-17T07:03:29;17.70;99.90
19622;DHT22;9958;33.196;-97.114;2023-05-17T07:05:57;17.70;99.90
19622;DHT22;9958;33.196;-97.114;2023-05-17T07:08:26;17.70;99.90
19622;DHT22;9958;33.196;-97.114;2023-05-17T07:10:56;17.70;99.90
19622;DHT22;9958;33.196;-97.114;2023-05-17T07:13:24;17.60;99.90
19622;DHT22;9958;33.196;-97.114;2023-05-17T07:15:52;17.60;99.90
19622;DHT22;9958;33.196;-97.114;2023-05-17T07:18:21;17.60;99.90
19622;DHT22;9958;33.196;-97.114;2023-05-17T07:20:49;17.60;99.90
19622;DHT22;9958;33.196;-97.114;2023-05-17T07:23:18;17.50;99.90
19622;DHT22;9958;33.196;-97.114;2023-05-17T07:25:46;17.50;99.90
19622;DHT22;9958;33.196;-97.114;2023-05-17T07:28:16;17.50;99.90
19622;DHT22;9958;33.196;-97.114;2023-05-17T07:30:44;17.50;99.90
19622;DHT22;9958;33.196;-97.114;2023-05-17T07:33:12;17.40;99.90
19622;DHT22;9958;33.196;-97.114;2023-05-17T07:35:41;17.40;99.90
19622;DHT22;9958;33.196;-97.114;2023-05-17T07:38:09;17.40;99.90
19622;DHT22;9958;33.196;-97.114;2023-05-17T07:40:37;17.40;99.90
19622;DHT22;9958;33.196;-97.114;2023-05-17T07:43:06;17.30;99.90
19622;DHT22;9958;33.196;-97.114;2023-05-17T07:45:35;17.30;99.90
19622;DHT22;9958;33.196;-97.114;2023-05-17T07:48:04;17.30;99.90
19622;DHT22;9958;33.196;-97.114;2023-05-17T07:50:32;17.30;99.90
19622;DHT22;9958;33.196;-97.114;2023-05-17T07:53:01;17.30;99.90
19622;DHT22;9958;33.196;-97.114;2023-05-17T07:55:29;17.20;99.90
19622;DHT22;9958;33.196;-97.114;2023-05-17T07:57:57;17.20;99.90
19622;DHT22;9958;33.196;-97.114;2023-05-17T08:00:26;17.30;99.90
19622;DHT22;9958;33.196;-97.114;2023-05-17T08:02:56;17.20;99.90
19622;DHT22;9958;33.196;-97.114;2023-05-17T08:05:25;17.20;99.90
19622;DHT22;9958;33.196;-97.114;2023-05-17T08:07:53;17.20;99.90
19622;DHT22;9958;33.196;-97.114;2023-05-17T08:10:25;17.20;99.90
19622;DHT22;9958;33.196;-97.114;2023-05-17T08:12:53;17.20;99.90
19622;DHT22;9958;33.196;-97.114;2023-05-17T08:15:22;17.20;99.90
19622;DHT22;9958;33.196;-97.114;2023-05-17T08:17:50;17.10;99.90
19622;DHT22;9958;33.196;-97.114;2023-05-17T08:20:20;17.10;99.90
19622;DHT22;9958;33.196;-97.114;2023-05-17T08:22:48;17.10;99.90
19622;DHT22;9958;33.196;-97.114;2023-05-17T08:25:17;17.10;99.90
19622;DHT22;9958;33.196;-97.114;2023-05-17T08:27:46;17.10;99.90
19622;DHT22;9958;33.196;-97.114;2023-05-17T08:30:14;17.10;99.90
19622;DHT22;9958;33.196;-97.114;2023-05-17T08:32:43;17.10;99.90
19622;DHT22;9958;33.196;-97.114;2023-05-17T08:35:11;17.10;99.90
19622;DHT22;9958;33.196;-97.114;2023-05-17T08:37:41;17.10;99.90
19622;DHT22;9958;33.196;-97.114;2023-05-17T08:40:10;17.10;99.90
19622;DHT22;9958;33.196;-97.114;2023-05-17T08:42:41;17.10;99.90
19622;DHT22;9958;33.196;-97.114;2023-05-17T08:45:10;17.10;99.90
19622;DHT22;9958;33.196;-97.114;2023-05-17T08:47:39;17.00;99.90
19622;DHT22;9958;33.196;-97.114;2023-05-17T08:50:09;17.10;99.90
19622;DHT22;9958;33.196;-97.114;2023-05-17T08:52:40;17.00;99.90
19622;DHT22;9958;33.196;-97.114;2023-05-17T08:55:11;17.00;99.90
19622;DHT22;9958;33.196;-97.114;2023-05-17T08:57:41;17.00;99.90
19622;DHT22;9958;33.196;-97.114;2023-05-17T09:00:12;17.00;99.90
19622;DHT22;9958;33.196;-97.114;2023-05-17T09:02:45;17.00;99.90
19622;DHT22;9958;33.196;-97.114;2023-05-17T09:05:14;17.00;99.90
19622;DHT22;9958;33.196;-97.114;2023-05-17T09:07:45;17.00;99.90
19622;DHT22;9958;33.196;-97.114;2023-05-17T09:10:14;17.00;99.90
19622;DHT22;9958;33.196;-97.114;2023-05-17T09:12:43;17.00;99.90
19622;DHT22;9958;33.196;-97.114;2023-05-17T09:15:13;16.90;99.90
19622;DHT22;9958;33.196;-97.114;2023-05-17T09:17:42;16.90;99.90
19622;DHT22;9958;33.196;-97.114;2023-05-17T09:20:11;16.90;99.90
19622;DHT22;9958;33.196;-97.114;2023-05-17T09:22:39;16.90;99.90
19622;DHT22;9958;33.196;-97.114;2023-05-17T09:25:09;16.90;99.90
19622;DHT22;9958;33.196;-97.114;2023-05-17T09:27:38;16.90;99.90
19622;DHT22;9958;33.196;-97.114;2023-05-17T09:30:10;16.90;99.90
19622;DHT22;9958;33.196;-97.114;2023-05-17T09:32:43;16.90;99.90
19622;DHT22;9958;33.196;-97.114;2023-05-17T09:35:12;16.80;99.90
19622;DHT22;9958;33.196;-97.114;2023-05-17T09:37:42;16.80;99.90
19622;DHT22;9958;33.196;-97.114;2023-05-17T09:40:23;16.80;99.90
19622;DHT22;9958;33.196;-97.114;2023-05-17T09:42:52;16.80;99.90
19622;DHT22;9958;33.196;-97.114;2023-05-17T09:45:23;16.80;99.90
19622;DHT22;9958;33.196;-97.114;2023-05-17T09:47:51;16.80;99.90
19622;DHT22;9958;33.196;-97.114;2023-05-17T09:50:20;16.80;99.90
19622;DHT22;9958;33.196;-97.114;2023-05-17T09:52:49;16.80;99.90
19622;DHT22;9958;33.196;-97.114;2023-05-17T09:55:17;16.80;99.90
19622;DHT22;9958;33.196;-97.114;2023-05-17T09:57:47;16.80;99.90
19622;DHT22;9958;33.196;-97.114;2023-05-17T10:00:16;16.80;99.90
19622;DHT22;9958;33.196;-97.114;2023-05-17T10:02:47;16.80;99.90
19622;DHT22;9958;33.196;-97.114;2023-05-17T10:05:17;16.80;99.90
19622;DHT22;9958;33.196;-97.114;2023-05-17T10:07:47;16.80;99.90
19622;DHT22;9958;33.196;-97.114;2023-05-17T10:10:17;16.70;99.90
19622;DHT22;9958;33.196;-97.114;2023-05-17T10:12:47;16.70;99.90
19622;DHT22;9958;33.196;-97.114;2023-05-17T10:15:17;16.70;99.90
19622;DHT22;9958;33.196;-97.114;2023-05-17T10:17:45;16.70;99.90
19622;DHT22;9958;33.196;-97.114;2023-05-17T10:20:15;16.70;99.90
19622;DHT22;9958;33.196;-97.114;2023-05-17T10:22:44;16.70;99.90
19622;DHT22;9958;33.196;-97.114;2023-05-17T10:25:13;16.70;99.90
19622;DHT22;9958;33.196;-97.114;2023-05-17T10:27:41;16.60;99.90
19622;DHT22;9958;33.196;-97.114;2023-05-17T10:30:13;16.60;99.90
19622;DHT22;9958;33.196;-97.114;2023-05-17T10:32:43;16.60;99.90
19622;DHT22;9958;33.196;-97.114;2023-05-17T10:35:12;16.60;99.90
19622;DHT22;9958;33.196;-97.114;2023-05-17T10:37:41;16.60;99.90
19622;DHT22;9958;33.196;-97.114;2023-05-17T10:40:10;16.60;99.90
19622;DHT22;9958;33.196;-97.114;2023-05-17T10:42:41;16.60;99.90
19622;DHT22;9958;33.196;-97.114;2023-05-17T10:45:13;16.50;99.90
19622;DHT22;9958;33.196;-97.114;2023-05-17T10:47:42;16.50;99.90
19622;DHT22;9958;33.196;-97.114;2023-05-17T10:50:12;16.50;99.90
19622;DHT22;9958;33.196;-97.114;2023-05-17T10:52:46;16.50;99.90
19622;DHT22;9958;33.196;-97.114;2023-05-17T10:55:18;16.50;99.90
19622;DHT22;9958;33.196;-97.114;2023-05-17T10:58:14;16.50;99.90
19622;DHT22;9958;33.196;-97.114;2023-05-17T11:00:45;16.50;99.90
19622;DHT22;9958;33.196;-97.114;2023-05-17T11:03:16;16.50;99.90
19622;DHT22;9958;33.196;-97.114;2023-05-17T11:06:12;16.50;99.90
19622;DHT22;9958;33.196;-97.114;2023-05-17T11:08:45;16.40;99.90
19622;DHT22;9958;33.196;-97.114;2023-05-17T11:11:16;16.40;99.90
19622;DHT22;9958;33.196;-97.114;2023-05-17T11:13:49;16.40;99.90
19622;DHT22;9958;33.196;-97.114;2023-05-17T11:16:27;16.40;99.90
19622;DHT22;9958;33.196;-97.114;2023-05-17T11:18:57;16.40;99.90
19622;DHT22;9958;33.196;-97.114;2023-05-17T11:21:33;16.40;99.90
19622;DHT22;9958;33.196;-97.114;2023-05-17T11:24:02;16.30;99.90
19622;DHT22;9958;33.196;-97.114;2023-05-17T11:26:35;16.30;99.90
19622;DHT22;9958;33.196;-97.114;2023-05-17T11:29:06;16.30;99.90
19622;DHT22;9958;33.196;-97.114;2023-05-17T11:31:42;16.30;99.90
19622;DHT22;9958;33.196;-97.114;2023-05-17T11:34:11;16.20;99.90
19622;DHT22;9958;33.196;-97.114;2023-05-17T11:36:49;16.30;99.90
19622;DHT22;9958;33.196;-97.114;2023-05-17T11:39:20;16.20;99.90
19622;DHT22;9958;33.196;-97.114;2023-05-17T11:41:49;16.20;99.90
19622;DHT22;9958;33.196;-97.114;2023-05-17T11:44:22;16.20;99.90
19622;DHT22;9958;33.196;-97.114;2023-05-17T11:47:02;16.30;99.90
19622;DHT22;9958;33.196;-97.114;2023-05-17T11:49:32;16.30;99.90
19622;DHT22;9958;33.196;-97.114;2023-05-17T11:52:01;16.30;99.90
19622;DHT22;9958;33.196;-97.114;2023-05-17T11:54:30;16.40;99.90
19622;DHT22;9958;33.196;-97.114;2023-05-17T11:56:59;16.40;99.90
19622;DHT22;9958;33.196;-97.114;2023-05-17T11:59:28;16.40;99.90
19622;DHT22;9958;33.196;-97.114;2023-05-17T12:01:56;16.50;99.90
19622;DHT22;9958;33.196;-97.114;2023-05-17T12:04:27;16.50;99.90
19622;DHT22;9958;33.196;-97.114;2023-05-17T12:06:55;16.60;99.90
19622;DHT22;9958;33.196;-97.114;2023-05-17T12:09:24;16.70;99.90
19622;DHT22;9958;33.196;-97.114;2023-05-17T12:11:53;16.70;99.90
19622;DHT22;9958;33.196;-97.114;2023-05-17T12:14:21;16.80;99.90
19622;DHT22;9958;33.196;-97.114;2023-05-17T12:16:50;16.90;99.90
19622;DHT22;9958;33.196;-97.114;2023-05-17T12:19:22;17.00;99.90
19622;DHT22;9958;33.196;-97.114;2023-05-17T12:22:05;17.30;99.90
19622;DHT22;9958;33.196;-97.114;2023-05-17T12:24:37;17.70;99.90
19622;DHT22;9958;33.196;-97.114;2023-05-17T12:27:06;18.40;99.90
19622;DHT22;9958;33.196;-97.114;2023-05-17T12:29:35;19.30;99.90
19622;DHT22;9958;33.196;-97.114;2023-05-17T12:32:04;20.70;99.90
19622;DHT22;9958;33.196;-97.114;2023-05-17T12:34:33;22.20;99.90
19622;DHT22;9958;33.196;-97.114;2023-05-17T12:37:03;23.80;99.90
19622;DHT22;9958;33.196;-97.114;2023-05-17T12:39:35;25.30;99.90
19622;DHT22;9958;33.196;-97.114;2023-05-17T12:42:04;26.70;99.90
19622;DHT22;9958;33.196;-97.114;2023-05-17T12:44:32;27.90;99.90
19622;DHT22;9958;33.196;-97.114;2023-05-17T12:47:02;29.00;99.90
19622;DHT22;9958;33.196;-97.114;2023-05-17T12:49:30;30.20;99.90
19622;DHT22;9958;33.196;-97.114;2023-05-17T12:52:06;31.10;99.90
19622;DHT22;9958;33.196;-97.114;2023-05-17T12:54:34;32.00;99.90
19622;DHT22;9958;33.196;-97.114;2023-05-17T12:57:11;32.80;99.90
19622;DHT22;9958;33.196;-97.114;2023-05-17T12:59:47;33.60;95.50
19622;DHT22;9958;33.196;-97.114;2023-05-17T13:02:17;34.10;92.60
19622;DHT22;9958;33.196;-97.114;2023-05-17T13:04:46;34.50;89.80
19622;DHT22;9958;33.196;-97.114;2023-05-17T13:07:22;34.60;86.70
19622;DHT22;9958;33.196;-97.114;2023-05-17T13:09:51;34.40;85.10
19622;DHT22;9958;33.196;-97.114;2023-05-17T13:12:20;33.90;85.20
19622;DHT22;9958;33.196;-97.114;2023-05-17T13:14:49;33.30;85.60
19622;DHT22;9958;33.196;-97.114;2023-05-17T13:17:23;32.40;86.60
19622;DHT22;9958;33.196;-97.114;2023-05-17T13:19:52;31.50;88.50
19622;DHT22;9958;33.196;-97.114;2023-05-17T13:22:23;30.50;90.50
19622;DHT22;9958;33.196;-97.114;2023-05-17T13:24:52;29.60;92.00
19622;DHT22;9958;33.196;-97.114;2023-05-17T13:27:21;28.80;93.50
19622;DHT22;9958;33.196;-97.114;2023-05-17T13:29:49;28.10;94.70
19622;DHT22;9958;33.196;-97.114;2023-05-17T13:32:17;27.40;95.80
19622;DHT22;9958;33.196;-97.114;2023-05-17T13:34:46;26.90;97.90
19622;DHT22;9958;33.196;-97.114;2023-05-17T13:37:14;26.50;99.10
19622;DHT22;9958;33.196;-97.114;2023-05-17T13:39:44;26.10;99.90
19622;DHT22;9958;33.196;-97.114;2023-05-17T13:42:13;25.80;99.90
19622;DHT22;9958;33.196;-97.114;2023-05-17T13:44:41;25.40;99.90
19622;DHT22;9958;33.196;-97.114;2023-05-17T13:47:10;25.00;99.90
19622;DHT22;9958;33.196;-97.114;2023-05-17T13:49:38;24.80;99.90
19622;DHT22;9958;33.196;-97.114;2023-05-17T13:52:07;24.70;99.90
19622;DHT22;9958;33.196;-97.114;2023-05-17T13:54:35;24.50;99.90
19622;DHT22;9958;33.196;-97.114;2023-05-17T13:57:06;24.30;99.90
19622;DHT22;9958;33.196;-97.114;2023-05-17T13:59:34;24.10;99.90
19622;DHT22;9958;33.196;-97.114;2023-05-17T14:02:03;24.10;99.90
19622;DHT22;9958;33.196;-97.114;2023-05-17T14:04:31;24.00;99.90
19622;DHT22;9958;33.196;-97.114;2023-05-17T14:07:00;23.90;99.90
19622;DHT22;9958;33.196;-97.114;2023-05-17T14:09:28;23.90;99.90
19622;DHT22;9958;33.196;-97.114;2023-05-17T14:11:59;23.90;99.90
19622;DHT22;9958;33.196;-97.114;2023-05-17T14:14:29;23.90;99.90
19622;DHT22;9958;33.196;-97.114;2023-05-17T14:16:57;23.90;99.90
19622;DHT22;9958;33.196;-97.114;2023-05-17T14:19:26;24.00;99.90
19622;DHT22;9958;33.196;-97.114;2023-05-17T14:21:55;24.10;99.90
19622;DHT22;9958;33.196;-97.114;2023-05-17T14:24:23;24.10;99.90
19622;DHT22;9958;33.196;-97.114;2023-05-17T14:26:51;24.00;99.90
19622;DHT22;9958;33.196;-97.114;2023-05-17T14:29:19;24.10;99.90
19622;DHT22;9958;33.196;-97.114;2023-05-17T14:31:49;24.20;99.90
19622;DHT22;9958;33.196;-97.114;2023-05-17T14:34:18;24.20;99.90
19622;DHT22;9958;33.196;-97.114;2023-05-17T14:36:46;24.30;99.90
19622;DHT22;9958;33.196;-97.114;2023-05-17T14:39:14;24.40;99.90
19622;DHT22;9958;33.196;-97.114;2023-05-17T14:41:43;24.40;99.90
19622;DHT22;9958;33.196;-97.114;2023-05-17T14:44:11;24.50;99.90
19622;DHT22;9958;33.196;-97.114;2023-05-17T14:46:39;24.50;99.90
19622;DHT22;9958;33.196;-97.114;2023-05-17T14:49:09;24.50;99.90
19622;DHT22;9958;33.196;-97.114;2023-05-17T14:51:37;24.60;99.90
19622;DHT22;9958;33.196;-97.114;2023-05-17T14:54:09;24.70;99.90
19622;DHT22;9958;33.196;-97.114;2023-05-17T14:56:42;24.60;99.90
19622;DHT22;9958;33.196;-97.114;2023-05-17T14:59:16;24.70;99.90
19622;DHT22;9958;33.196;-97.114;2023-05-17T15:01:44;24.80;99.90
19622;DHT22;9958;33.196;-97.114;2023-05-17T15:04:29;24.80;99.90
19622;DHT22;9958;33.196;-97.114;2023-05-17T15:07:01;25.00;99.90
19622;DHT22;9958;33.196;-97.114;2023-05-17T15:09:30;25.00;99.90
19622;DHT22;9958;33.196;-97.114;2023-05-17T15:12:10;24.90;99.90
19622;DHT22;9958;33.196;-97.114;2023-05-17T15:14:52;25.10;99.90
19622;DHT22;9958;33.196;-97.114;2023-05-17T15:17:31;25.20;99.90
19622;DHT22;9958;33.196;-97.114;2023-05-17T15:20:03;25.30;99.90
19622;DHT22;9958;33.196;-97.114;2023-05-17T15:22:33;25.40;99.90
19622;DHT22;9958;33.196;-97.114;2023-05-17T15:25:02;25.50;99.90
19622;DHT22;9958;33.196;-97.114;2023-05-17T15:27:40;25.60;99.90
19622;DHT22;9958;33.196;-97.114;2023-05-17T15:30:09;25.70;99.90
19622;DHT22;9958;33.196;-97.114;2023-05-17T15:32:38;25.80;99.90